sensor_id;sensor_type;location;lat;lon;timestamp;pressure;altitude;pressure_sealevel;temperature;humidity
77799;BME280;66989;50.426;15.352;2023-11-19T00:02:08;98571.47;;;1.87;97.88
77799;BME280;66989;50.426;15.352;2023-11-19T00:04:36;98575.81;;;1.87;97.55
77799;BME280;66989;50.426;15.352;2023-11-19T00:07:02;98570.63;;;1.87;98.07
77799;BME280;66989;50.426;15.352;2023-11-19T00:09:29;98559.31;;;1.88;98.02
77799;BME280;66989;50.426;15.352;2023-11-19T00:11:55;98552.25;;;1.91;97.86
77799;BME280;66989;50.426;15.352;2023-11-19T00:14:20;98554.78;;;1.93;98.11
77799;BME280;66989;50.426;15.352;2023-11-19T00:16:46;98549.59;;;1.93;97.77
77799;BME280;66989;50.426;15.352;2023-11-19T00:19:11;98546.09;;;1.94;97.73
77799;BME280;66989;50.426;15.352;2023-11-19T00:21:37;98543.47;;;1.94;97.73
77799;BME280;66989;50.426;15.352;2023-11-19T00:24:02;98532.19;;;1.95;97.47
77799;BME280;66989;50.426;15.352;2023-11-19T00:26:27;98521.81;;;1.95;97.54
77799;BME280;66989;50.426;15.352;2023-11-19T00:28:53;98516.59;;;1.95;97.61
77799;BME280;66989;50.426;15.352;2023-11-19T00:31:18;98502.72;;;1.94;97.46
77799;BME280;66989;50.426;15.352;2023-11-19T00:33:43;98497.59;;;1.93;97.55
77799;BME280;66989;50.426;15.352;2023-11-19T00:36:09;98502.78;;;1.93;97.77
77799;BME280;66989;50.426;15.352;2023-11-19T00:38:34;98498.50;;;1.92;97.76
77799;BME280;66989;50.426;15.352;2023-11-19T00:41:00;98486.50;;;1.88;98.11
77799;BME280;66989;50.426;15.352;2023-11-19T00:43:25;98476.19;;;1.86;98.17
77799;BME280;66989;50.426;15.352;2023-11-19T00:45:51;98457.13;;;1.86;98.36
77799;BME280;66989;50.426;15.352;2023-11-19T00:48:16;98448.53;;;1.84;98.02
77799;BME280;66989;50.426;15.352;2023-11-19T00:50:42;98440.88;;;1.81;98.08
77799;BME280;66989;50.426;15.352;2023-11-19T00:53:09;98436.63;;;1.78;98.27
77799;BME280;66989;50.426;15.352;2023-11-19T00:55:35;98433.16;;;1.78;98.35
77799;BME280;66989;50.426;15.352;2023-11-19T00:58:00;98433.22;;;1.76;98.17
77799;BME280;66989;50.426;15.352;2023-11-19T01:00:25;98442.78;;;1.76;98.35
77799;BME280;66989;50.426;15.352;2023-11-19T01:02:52;98445.31;;;1.77;97.98
77799;BME280;66989;50.426;15.352;2023-11-19T01:05:19;98425.28;;;1.81;97.91
77799;BME280;66989;50.426;15.352;2023-11-19T01:07:47;98428.66;;;1.83;97.60
77799;BME280;66989;50.426;15.352;2023-11-19T01:10:13;98444.25;;;1.83;97.71
77799;BME280;66989;50.426;15.352;2023-11-19T01:12:38;98444.19;;;1.84;97.57
77799;BME280;66989;50.426;15.352;2023-11-19T01:15:05;98450.19;;;1.86;97.44
77799;BME280;66989;50.426;15.352;2023-11-19T01:17:30;98433.69;;;1.87;97.29
77799;BME280;66989;50.426;15.352;2023-11-19T01:19:57;98422.50;;;1.85;96.97
77799;BME280;66989;50.426;15.352;2023-11-19T01:22:22;98425.13;;;1.84;97.19
77799;BME280;66989;50.426;15.352;2023-11-19T01:24:48;98425.09;;;1.85;97.55
77799;BME280;66989;50.426;15.352;2023-11-19T01:27:13;98409.50;;;1.85;97.49
77799;BME280;66989;50.426;15.352;2023-11-19T01:29:39;98407.75;;;1.86;97.53
77799;BME280;66989;50.426;15.352;2023-11-19T01:32:05;98415.53;;;1.86;97.79
77799;BME280;66989;50.426;15.352;2023-11-19T01:34:30;98415.53;;;1.86;97.74
77799;BME280;66989;50.426;15.352;2023-11-19T01:36:55;98412.09;;;1.85;97.68
77799;BME280;66989;50.426;15.352;2023-11-19T01:39:21;98399.03;;;1.87;97.97
77799;BME280;66989;50.426;15.352;2023-11-19T01:41:47;98405.91;;;1.88;97.94
77799;BME280;66989;50.426;15.352;2023-11-19T01:44:12;98393.75;;;1.88;97.83
77799;BME280;66989;50.426;15.352;2023-11-19T01:46:38;98387.66;;;1.89;97.99
77799;BME280;66989;50.426;15.352;2023-11-19T01:49:04;98393.72;;;1.90;97.57
77799;BME280;66989;50.426;15.352;2023-11-19T01:51:31;98379.94;;;1.88;97.30
77799;BME280;66989;50.426;15.352;2023-11-19T01:53:57;98370.44;;;1.87;96.97
77799;BME280;66989;50.426;15.352;2023-11-19T01:56:24;98358.38;;;1.84;97.25
77799;BME280;66989;50.426;15.352;2023-11-19T01:58:51;98356.69;;;1.83;96.83
77799;BME280;66989;50.426;15.352;2023-11-19T02:01:19;98334.41;;;1.78;96.66
77799;BME280;66989;50.426;15.352;2023-11-19T02:03:44;98343.84;;;1.80;97.14
77799;BME280;66989;50.426;15.352;2023-11-19T02:06:12;98335.25;;;1.78;96.48
77799;BME280;66989;50.426;15.352;2023-11-19T02:08:38;98331.72;;;1.79;97.00
77799;BME280;66989;50.426;15.352;2023-11-19T02:11:04;98326.59;;;1.78;96.28
77799;BME280;66989;50.426;15.352;2023-11-19T02:13:32;98316.34;;;1.75;96.23
77799;BME280;66989;50.426;15.352;2023-11-19T02:15:58;98324.00;;;1.78;96.29
77799;BME280;66989;50.426;15.352;2023-11-19T02:18:26;98319.59;;;1.80;95.91
77799;BME280;66989;50.426;15.352;2023-11-19T02:20:56;98305.72;;;1.79;95.69
77799;BME280;66989;50.426;15.352;2023-11-19T02:23:22;98302.44;;;1.76;95.98
77799;BME280;66989;50.426;15.352;2023-11-19T02:28:33;98321.72;;;1.70;96.46
77799;BME280;66989;50.426;15.352;2023-11-19T02:31:00;98310.59;;;1.66;96.51
77799;BME280;66989;50.426;15.352;2023-11-19T02:33:26;98317.59;;;1.64;96.42
77799;BME280;66989;50.426;15.352;2023-11-19T02:35:51;98305.56;;;1.62;96.44
77799;BME280;66989;50.426;15.352;2023-11-19T02:38:16;98297.84;;;1.60;96.76
77799;BME280;66989;50.426;15.352;2023-11-19T02:40:42;98290.09;;;1.59;97.08
77799;BME280;66989;50.426;15.352;2023-11-19T02:43:07;98283.16;;;1.59;97.24
77799;BME280;66989;50.426;15.352;2023-11-19T02:45:33;98278.97;;;1.55;97.82
77799;BME280;66989;50.426;15.352;2023-11-19T02:47:59;98288.56;;;1.53;97.45
77799;BME280;66989;50.426;15.352;2023-11-19T02:50:27;98301.44;;;1.56;97.97
77799;BME280;66989;50.426;15.352;2023-11-19T02:52:54;98288.53;;;1.55;97.95
77799;BME280;66989;50.426;15.352;2023-11-19T02:55:21;98288.53;;;1.55;97.78
77799;BME280;66989;50.426;15.352;2023-11-19T02:57:48;98264.34;;;1.53;98.00
77799;BME280;66989;50.426;15.352;2023-11-19T03:00:15;98259.16;;;1.53;98.21
77799;BME280;66989;50.426;15.352;2023-11-19T03:02:41;98248.91;;;1.50;98.38
77799;BME280;66989;50.426;15.352;2023-11-19T03:05:14;98246.34;;;1.48;98.28
77799;BME280;66989;50.426;15.352;2023-11-19T03:07:41;98254.13;;;1.48;98.25
77799;BME280;66989;50.426;15.352;2023-11-19T03:10:08;98249.00;;;1.46;98.06
77799;BME280;66989;50.426;15.352;2023-11-19T03:12:34;98255.03;;;1.47;98.49
77799;BME280;66989;50.426;15.352;2023-11-19T03:14:59;98249.84;;;1.47;98.38
77799;BME280;66989;50.426;15.352;2023-11-19T03:17:24;98242.97;;;1.46;98.92
77799;BME280;66989;50.426;15.352;2023-11-19T03:19:50;98230.06;;;1.43;98.74
77799;BME280;66989;50.426;15.352;2023-11-19T03:22:15;98220.59;;;1.42;98.67
77799;BME280;66989;50.426;15.352;2023-11-19T03:24:41;98224.13;;;1.41;98.82
77799;BME280;66989;50.426;15.352;2023-11-19T03:27:06;98235.41;;;1.40;99.18
77799;BME280;66989;50.426;15.352;2023-11-19T03:29:31;98238.84;;;1.40;99.40
77799;BME280;66989;50.426;15.352;2023-11-19T03:31:57;98237.16;;;1.39;99.21
77799;BME280;66989;50.426;15.352;2023-11-19T03:34:22;98226.81;;;1.38;99.38
77799;BME280;66989;50.426;15.352;2023-11-19T03:36:48;98221.63;;;1.38;99.33
77799;BME280;66989;50.426;15.352;2023-11-19T03:39:14;98214.75;;;1.37;99.07
77799;BME280;66989;50.426;15.352;2023-11-19T03:41:39;98207.78;;;1.37;98.84
77799;BME280;66989;50.426;15.352;2023-11-19T03:44:04;98204.34;;;1.37;99.00
77799;BME280;66989;50.426;15.352;2023-11-19T03:46:30;98183.66;;;1.35;98.90
77799;BME280;66989;50.426;15.352;2023-11-19T03:48:56;98181.97;;;1.34;98.88
77799;BME280;66989;50.426;15.352;2023-11-19T03:51:21;98169.88;;;1.33;99.33
77799;BME280;66989;50.426;15.352;2023-11-19T03:53:47;98154.31;;;1.33;99.16
77799;BME280;66989;50.426;15.352;2023-11-19T03:56:12;98177.59;;;1.35;99.78
77799;BME280;66989;50.426;15.352;2023-11-19T03:58:38;98172.47;;;1.33;99.69
77799;BME280;66989;50.426;15.352;2023-11-19T04:01:13;98176.81;;;1.33;100.00
77799;BME280;66989;50.426;15.352;2023-11-19T04:03:39;98174.19;;;1.33;99.90
77799;BME280;66989;50.426;15.352;2023-11-19T04:06:04;98174.19;;;1.33;99.95
77799;BME280;66989;50.426;15.352;2023-11-19T04:08:30;98167.31;;;1.32;100.00
77799;BME280;66989;50.426;15.352;2023-11-19T04:10:55;98172.53;;;1.32;100.00
77799;BME280;66989;50.426;15.352;2023-11-19T04:13:20;98170.72;;;1.34;99.81
77799;BME280;66989;50.426;15.352;2023-11-19T04:15:46;98153.44;;;1.33;99.81
77799;BME280;66989;50.426;15.352;2023-11-19T04:18:11;98148.38;;;1.30;99.66
77799;BME280;66989;50.426;15.352;2023-11-19T04:20:37;98137.84;;;1.33;99.85
77799;BME280;66989;50.426;15.352;2023-11-19T04:23:02;98122.41;;;1.30;100.00
77799;BME280;66989;50.426;15.352;2023-11-19T04:25:27;98123.97;;;1.34;100.00
77799;BME280;66989;50.426;15.352;2023-11-19T04:27:54;98120.47;;;1.35;99.78
77799;BME280;66989;50.426;15.352;2023-11-19T04:30:19;98109.16;;;1.36;99.44
77799;BME280;66989;50.426;15.352;2023-11-19T04:32:44;98104.09;;;1.33;99.69
77799;BME280;66989;50.426;15.352;2023-11-19T04:35:10;98093.00;;;1.29;100.00
77799;BME280;66989;50.426;15.352;2023-11-19T04:37:36;98091.09;;;1.33;100.00
77799;BME280;66989;50.426;15.352;2023-11-19T04:40:02;98094.59;;;1.32;100.00
77799;BME280;66989;50.426;15.352;2023-11-19T04:42:28;98089.41;;;1.32;100.00
77799;BME280;66989;50.426;15.352;2023-11-19T04:44:54;98060.16;;;1.28;100.00
77799;BME280;66989;50.426;15.352;2023-11-19T04:47:20;98062.94;;;1.24;100.00
77799;BME280;66989;50.426;15.352;2023-11-19T04:49:45;98063.84;;;1.23;100.00
77799;BME280;66989;50.426;15.352;2023-11-19T04:52:11;98061.28;;;1.21;100.00
77799;BME280;66989;50.426;15.352;2023-11-19T04:54:41;98057.94;;;1.19;100.00
77799;BME280;66989;50.426;15.352;2023-11-19T04:57:07;98063.19;;;1.17;100.00
77799;BME280;66989;50.426;15.352;2023-11-19T04:59:34;98064.91;;;1.17;100.00
77799;BME280;66989;50.426;15.352;2023-11-19T05:02:00;98064.06;;;1.16;100.00
77799;BME280;66989;50.426;15.352;2023-11-19T05:04:25;98053.69;;;1.16;100.00
77799;BME280;66989;50.426;15.352;2023-11-19T05:06:51;98045.97;;;1.15;100.00
77799;BME280;66989;50.426;15.352;2023-11-19T05:09:16;98045.97;;;1.15;100.00
77799;BME280;66989;50.426;15.352;2023-11-19T05:11:41;98048.63;;;1.13;100.00
77799;BME280;66989;50.426;15.352;2023-11-19T05:14:07;98040.06;;;1.11;100.00
77799;BME280;66989;50.426;15.352;2023-11-19T05:16:34;98034.94;;;1.10;100.00
77799;BME280;66989;50.426;15.352;2023-11-19T05:19:00;98035.13;;;1.05;100.00
77799;BME280;66989;50.426;15.352;2023-11-19T05:21:25;98042.13;;;1.03;100.00
77799;BME280;66989;50.426;15.352;2023-11-19T05:23:50;98045.50;;;1.05;100.00
77799;BME280;66989;50.426;15.352;2023-11-19T05:26:20;98044.66;;;1.05;100.00
77799;BME280;66989;50.426;15.352;2023-11-19T05:28:46;98053.28;;;1.05;100.00
77799;BME280;66989;50.426;15.352;2023-11-19T05:31:12;98048.91;;;1.07;100.00
77799;BME280;66989;50.426;15.352;2023-11-19T05:33:37;98036.81;;;1.06;100.00
77799;BME280;66989;50.426;15.352;2023-11-19T05:36:04;98025.53;;;1.07;100.00
77799;BME280;66989;50.426;15.352;2023-11-19T05:38:29;98022.94;;;1.07;100.00
77799;BME280;66989;50.426;15.352;2023-11-19T05:40:55;98016.84;;;1.08;100.00
77799;BME280;66989;50.426;15.352;2023-11-19T05:43:20;98004.69;;;1.09;100.00
77799;BME280;66989;50.426;15.352;2023-11-19T05:45:46;98005.47;;;1.11;100.00
77799;BME280;66989;50.426;15.352;2023-11-19T05:48:11;97995.91;;;1.11;100.00
77799;BME280;66989;50.426;15.352;2023-11-19T05:50:37;97998.47;;;1.13;100.00
77799;BME280;66989;50.426;15.352;2023-11-19T05:53:02;97988.94;;;1.13;100.00
77799;BME280;66989;50.426;15.352;2023-11-19T05:55:30;97988.13;;;1.11;100.00
77799;BME280;66989;50.426;15.352;2023-11-19T05:57:56;97976.00;;;1.12;100.00
77799;BME280;66989;50.426;15.352;2023-11-19T06:00:21;97968.19;;;1.12;100.00
77799;BME280;66989;50.426;15.352;2023-11-19T06:02:47;97961.13;;;1.15;100.00
77799;BME280;66989;50.426;15.352;2023-11-19T06:05:12;97974.03;;;1.17;100.00
77799;BME280;66989;50.426;15.352;2023-11-19T06:07:38;97980.03;;;1.19;100.00
77799;BME280;66989;50.426;15.352;2023-11-19T06:10:05;97979.94;;;1.20;100.00
77799;BME280;66989;50.426;15.352;2023-11-19T06:12:33;97972.16;;;1.20;100.00
77799;BME280;66989;50.426;15.352;2023-11-19T06:15:00;97962.50;;;1.24;100.00
77799;BME280;66989;50.426;15.352;2023-11-19T06:17:25;97955.47;;;1.26;100.00
77799;BME280;66989;50.426;15.352;2023-11-19T06:19:50;97958.91;;;1.27;100.00
77799;BME280;66989;50.426;15.352;2023-11-19T06:22:16;97936.47;;;1.26;100.00
77799;BME280;66989;50.426;15.352;2023-11-19T06:24:41;97933.03;;;1.25;100.00
77799;BME280;66989;50.426;15.352;2023-11-19T06:27:07;97942.50;;;1.26;100.00
77799;BME280;66989;50.426;15.352;2023-11-19T06:29:33;97940.72;;;1.27;100.00
77799;BME280;66989;50.426;15.352;2023-11-19T06:31:58;97947.59;;;1.28;100.00
77799;BME280;66989;50.426;15.352;2023-11-19T06:34:23;97943.28;;;1.28;100.00
77799;BME280;66989;50.426;15.352;2023-11-19T06:36:49;97942.41;;;1.28;100.00
77799;BME280;66989;50.426;15.352;2023-11-19T06:39:14;97941.53;;;1.29;100.00
77799;BME280;66989;50.426;15.352;2023-11-19T06:41:44;97941.53;;;1.29;100.00
77799;BME280;66989;50.426;15.352;2023-11-19T06:44:10;97938.94;;;1.29;100.00
77799;BME280;66989;50.426;15.352;2023-11-19T06:46:35;97940.63;;;1.30;100.00
77799;BME280;66989;50.426;15.352;2023-11-19T06:49:00;97938.94;;;1.29;100.00
77799;BME280;66989;50.426;15.352;2023-11-19T06:51:26;97946.72;;;1.29;100.00
77799;BME280;66989;50.426;15.352;2023-11-19T06:53:52;97942.38;;;1.29;100.00
77799;BME280;66989;50.426;15.352;2023-11-19T06:56:19;97939.81;;;1.28;100.00
77799;BME280;66989;50.426;15.352;2023-11-19T06:58:45;97926.16;;;1.24;100.00
77799;BME280;66989;50.426;15.352;2023-11-19T07:01:10;97934.00;;;1.23;100.00
77799;BME280;66989;50.426;15.352;2023-11-19T07:03:36;97930.63;;;1.20;100.00
77799;BME280;66989;50.426;15.352;2023-11-19T07:06:01;97926.41;;;1.18;100.00
77799;BME280;66989;50.426;15.352;2023-11-19T07:08:30;97924.72;;;1.17;100.00
77799;BME280;66989;50.426;15.352;2023-11-19T07:10:55;97917.00;;;1.15;100.00
77799;BME280;66989;50.426;15.352;2023-11-19T07:13:21;97917.00;;;1.15;100.00
77799;BME280;66989;50.426;15.352;2023-11-19T07:15:46;97915.31;;;1.14;100.00
77799;BME280;66989;50.426;15.352;2023-11-19T07:18:11;97927.38;;;1.15;100.00
77799;BME280;66989;50.426;15.352;2023-11-19T07:20:37;97923.09;;;1.14;100.00
77799;BME280;66989;50.426;15.352;2023-11-19T07:23:03;97914.47;;;1.14;100.00
77799;BME280;66989;50.426;15.352;2023-11-19T07:25:29;97905.00;;;1.13;100.00
77799;BME280;66989;50.426;15.352;2023-11-19T07:27:54;97900.66;;;1.13;100.00
77799;BME280;66989;50.426;15.352;2023-11-19T07:30:22;97908.44;;;1.13;100.00
77799;BME280;66989;50.426;15.352;2023-11-19T07:32:47;97911.81;;;1.15;100.00
77799;BME280;66989;50.426;15.352;2023-11-19T07:35:14;97915.19;;;1.17;100.00
77799;BME280;66989;50.426;15.352;2023-11-19T07:37:41;97905.50;;;1.21;100.00
77799;BME280;66989;50.426;15.352;2023-11-19T07:40:07;97904.72;;;1.19;100.00
77799;BME280;66989;50.426;15.352;2023-11-19T07:42:33;97888.31;;;1.18;100.00
77799;BME280;66989;50.426;15.352;2023-11-19T07:44:58;97870.25;;;1.15;100.00
77799;BME280;66989;50.426;15.352;2023-11-19T07:47:24;97879.72;;;1.16;100.00
77799;BME280;66989;50.426;15.352;2023-11-19T07:49:50;97893.56;;;1.17;100.00
77799;BME280;66989;50.426;15.352;2023-11-19T07:52:15;97903.88;;;1.18;100.00
77799;BME280;66989;50.426;15.352;2023-11-19T07:54:41;97904.53;;;1.24;100.00
77799;BME280;66989;50.426;15.352;2023-11-19T07:57:06;97901.03;;;1.25;100.00
77799;BME280;66989;50.426;15.352;2023-11-19T07:59:32;97897.38;;;1.29;100.00
77799;BME280;66989;50.426;15.352;2023-11-19T08:01:57;97884.41;;;1.29;100.00
77799;BME280;66989;50.426;15.352;2023-11-19T08:04:23;97891.13;;;1.33;100.00
77799;BME280;66989;50.426;15.352;2023-11-19T08:06:49;97897.19;;;1.33;100.00
77799;BME280;66989;50.426;15.352;2023-11-19T08:09:14;97893.88;;;1.30;100.00
77799;BME280;66989;50.426;15.352;2023-11-19T08:11:41;97898.03;;;1.34;100.00
77799;BME280;66989;50.426;15.352;2023-11-19T08:14:06;97893.47;;;1.39;100.00
77799;BME280;66989;50.426;15.352;2023-11-19T08:16:32;97896.91;;;1.39;100.00
77799;BME280;66989;50.426;15.352;2023-11-19T08:18:57;97885.72;;;1.37;100.00
77799;BME280;66989;50.426;15.352;2023-11-19T08:21:23;97880.53;;;1.37;100.00
77799;BME280;66989;50.426;15.352;2023-11-19T08:23:49;97864.09;;;1.37;100.00
77799;BME280;66989;50.426;15.352;2023-11-19T08:26:15;97864.91;;;1.39;100.00
77799;BME280;66989;50.426;15.352;2023-11-19T08:28:41;97857.22;;;1.36;100.00
77799;BME280;66989;50.426;15.352;2023-11-19T08:31:06;97856.38;;;1.35;100.00
77799;BME280;66989;50.426;15.352;2023-11-19T08:33:32;97858.91;;;1.37;100.00
77799;BME280;66989;50.426;15.352;2023-11-19T08:35:57;97861.47;;;1.38;100.00
77799;BME280;66989;50.426;15.352;2023-11-19T08:38:24;97860.47;;;1.41;100.00
77799;BME280;66989;50.426;15.352;2023-11-19T08:40:49;97857.78;;;1.42;100.00
77799;BME280;66989;50.426;15.352;2023-11-19T08:43:14;97849.94;;;1.44;100.00
77799;BME280;66989;50.426;15.352;2023-11-19T08:45:41;97858.38;;;1.49;100.00
77799;BME280;66989;50.426;15.352;2023-11-19T08:48:06;97860.06;;;1.50;100.00
77799;BME280;66989;50.426;15.352;2023-11-19T08:50:32;97848.66;;;1.53;100.00
77799;BME280;66989;50.426;15.352;2023-11-19T08:52:57;97833.78;;;1.56;100.00
77799;BME280;66989;50.426;15.352;2023-11-19T08:55:23;97846.66;;;1.59;100.00
77799;BME280;66989;50.426;15.352;2023-11-19T08:57:48;97858.78;;;1.59;100.00
77799;BME280;66989;50.426;15.352;2023-11-19T09:00:14;97865.59;;;1.61;100.00
77799;BME280;66989;50.426;15.352;2023-11-19T09:02:40;97863.75;;;1.63;100.00
77799;BME280;66989;50.426;15.352;2023-11-19T09:05:05;97848.94;;;1.65;100.00
77799;BME280;66989;50.426;15.352;2023-11-19T09:07:34;97836.59;;;1.70;100.00
77799;BME280;66989;50.426;15.352;2023-11-19T09:09:59;97834.53;;;1.77;100.00
77799;BME280;66989;50.426;15.352;2023-11-19T09:12:24;97845.56;;;1.82;100.00
77799;BME280;66989;50.426;15.352;2023-11-19T09:14:50;97842.66;;;1.88;100.00
77799;BME280;66989;50.426;15.352;2023-11-19T09:17:15;97834.03;;;1.88;100.00
77799;BME280;66989;50.426;15.352;2023-11-19T09:19:42;97843.38;;;1.92;100.00
77799;BME280;66989;50.426;15.352;2023-11-19T09:22:07;97839.00;;;1.92;100.00
77799;BME280;66989;50.426;15.352;2023-11-19T09:24:33;97831.06;;;1.95;100.00
77799;BME280;66989;50.426;15.352;2023-11-19T09:26:59;97833.47;;;2.00;100.00
77799;BME280;66989;50.426;15.352;2023-11-19T09:29:31;97825.34;;;2.06;100.00
77799;BME280;66989;50.426;15.352;2023-11-19T09:31:56;97815.72;;;2.08;100.00
77799;BME280;66989;50.426;15.352;2023-11-19T09:34:22;97821.84;;;2.07;100.00
77799;BME280;66989;50.426;15.352;2023-11-19T09:36:47;97806.38;;;2.04;100.00
77799;BME280;66989;50.426;15.352;2023-11-19T09:39:13;97814.16;;;2.04;100.00
77799;BME280;66989;50.426;15.352;2023-11-19T09:41:41;97808.03;;;2.05;100.00
77799;BME280;66989;50.426;15.352;2023-11-19T09:44:08;97809.53;;;2.11;100.00
77799;BME280;66989;50.426;15.352;2023-11-19T09:46:34;97806.53;;;2.18;100.00
77799;BME280;66989;50.426;15.352;2023-11-19T09:49:01;97801.19;;;2.21;100.00
77799;BME280;66989;50.426;15.352;2023-11-19T09:51:28;97801.88;;;2.25;100.00
77799;BME280;66989;50.426;15.352;2023-11-19T09:53:54;97797.38;;;2.29;100.00
77799;BME280;66989;50.426;15.352;2023-11-19T09:56:19;97800.72;;;2.31;100.00
77799;BME280;66989;50.426;15.352;2023-11-19T09:58:45;97799.88;;;2.30;100.00
77799;BME280;66989;50.426;15.352;2023-11-19T10:01:11;97802.72;;;2.25;100.00
77799;BME280;66989;50.426;15.352;2023-11-19T10:03:39;97801.81;;;2.27;100.00
77799;BME280;66989;50.426;15.352;2023-11-19T10:06:10;97801.66;;;2.30;100.00
77799;BME280;66989;50.426;15.352;2023-11-19T10:08:39;97789.47;;;2.30;100.00
77799;BME280;66989;50.426;15.352;2023-11-19T10:11:08;97773.72;;;2.33;100.00
77799;BME280;66989;50.426;15.352;2023-11-19T10:13:35;97780.38;;;2.39;100.00
77799;BME280;66989;50.426;15.352;2023-11-19T10:16:13;97788.78;;;2.44;100.00
77799;BME280;66989;50.426;15.352;2023-11-19T10:18:49;97784.50;;;2.43;100.00
77799;BME280;66989;50.426;15.352;2023-11-19T10:21:18;97773.94;;;2.46;100.00
77799;BME280;66989;50.426;15.352;2023-11-19T10:23:51;97773.94;;;2.46;100.00
77799;BME280;66989;50.426;15.352;2023-11-19T10:26:18;97772.13;;;2.48;100.00
77799;BME280;66989;50.426;15.352;2023-11-19T10:28:45;97775.47;;;2.50;100.00
77799;BME280;66989;50.426;15.352;2023-11-19T10:31:18;97778.53;;;2.58;100.00
77799;BME280;66989;50.426;15.352;2023-11-19T10:33:45;97779.66;;;2.70;100.00
77799;BME280;66989;50.426;15.352;2023-11-19T10:36:14;97777.31;;;2.81;100.00
77799;BME280;66989;50.426;15.352;2023-11-19T10:38:40;97780.44;;;2.88;100.00
77799;BME280;66989;50.426;15.352;2023-11-19T10:41:06;97776.94;;;2.89;100.00
77799;BME280;66989;50.426;15.352;2023-11-19T10:43:42;97767.50;;;2.86;100.00
77799;BME280;66989;50.426;15.352;2023-11-19T10:46:10;97770.53;;;2.78;100.00
77799;BME280;66989;50.426;15.352;2023-11-19T10:48:36;97779.94;;;2.81;100.00
77799;BME280;66989;50.426;15.352;2023-11-19T10:51:05;97771.13;;;2.84;100.00
77799;BME280;66989;50.426;15.352;2023-11-19T10:53:35;97765.00;;;2.85;100.00
77799;BME280;66989;50.426;15.352;2023-11-19T10:56:02;97754.69;;;2.83;100.00
77799;BME280;66989;50.426;15.352;2023-11-19T10:58:32;97749.53;;;2.82;100.00
77799;BME280;66989;50.426;15.352;2023-11-19T11:01:01;97746.28;;;2.78;100.00
77799;BME280;66989;50.426;15.352;2023-11-19T11:03:37;97741.31;;;2.73;100.00
77799;BME280;66989;50.426;15.352;2023-11-19T11:06:05;97744.66;;;2.75;100.00
77799;BME280;66989;50.426;15.352;2023-11-19T11:08:31;97755.75;;;2.79;100.00
77799;BME280;66989;50.426;15.352;2023-11-19T11:10:57;97746.78;;;2.85;100.00
77799;BME280;66989;50.426;15.352;2023-11-19T11:13:26;97744.78;;;2.90;100.00
77799;BME280;66989;50.426;15.352;2023-11-19T11:15:57;97757.38;;;2.97;100.00
77799;BME280;66989;50.426;15.352;2023-11-19T11:18:26;97751.78;;;3.05;100.00
77799;BME280;66989;50.426;15.352;2023-11-19T11:21:04;97743.63;;;3.11;100.00
77799;BME280;66989;50.426;15.352;2023-11-19T11:29:10;97736.75;;;3.26;100.00
77799;BME280;66989;50.426;15.352;2023-11-19T11:32:05;97734.47;;;3.20;100.00
77799;BME280;66989;50.426;15.352;2023-11-19T11:39:46;97730.09;;;3.20;100.00
77799;BME280;66989;50.426;15.352;2023-11-19T11:45:01;97729.50;;;3.31;100.00
77799;BME280;66989;50.426;15.352;2023-11-19T11:50:09;97721.84;;;3.44;100.00
77799;BME280;66989;50.426;15.352;2023-11-19T11:55:19;97719.16;;;3.61;100.00
77799;BME280;66989;50.426;15.352;2023-11-19T11:57:50;97717.44;;;3.60;100.00
77799;BME280;66989;50.426;15.352;2023-11-19T12:00:30;97712.44;;;3.57;99.06
77799;BME280;66989;50.426;15.352;2023-11-19T12:02:56;97707.78;;;3.62;99.57
77799;BME280;66989;50.426;15.352;2023-11-19T12:05:22;97710.03;;;3.68;99.48
77799;BME280;66989;50.426;15.352;2023-11-19T12:07:55;97705.88;;;3.66;99.39
77799;BME280;66989;50.426;15.352;2023-11-19T12:10:24;97709.47;;;3.63;99.23
77799;BME280;66989;50.426;15.352;2023-11-19T12:12:52;97703.50;;;3.61;98.51
77799;BME280;66989;50.426;15.352;2023-11-19T12:15:18;97694.91;;;3.59;98.60
77799;BME280;66989;50.426;15.352;2023-11-19T12:17:49;97682.91;;;3.56;99.04
77799;BME280;66989;50.426;15.352;2023-11-19T12:20:15;97689.06;;;3.55;98.75
77799;BME280;66989;50.426;15.352;2023-11-19T12:22:42;97686.88;;;3.48;98.36
77799;BME280;66989;50.426;15.352;2023-11-19T12:25:09;97687.38;;;3.39;97.92
77799;BME280;66989;50.426;15.352;2023-11-19T12:27:48;97698.16;;;3.33;98.60
77799;BME280;66989;50.426;15.352;2023-11-19T12:30:32;97698.59;;;3.25;98.63
77799;BME280;66989;50.426;15.352;2023-11-19T12:32:57;97690.19;;;3.20;98.72
77799;BME280;66989;50.426;15.352;2023-11-19T12:35:23;97689.25;;;3.21;99.61
77799;BME280;66989;50.426;15.352;2023-11-19T12:37:52;97681.09;;;3.27;99.78
77799;BME280;66989;50.426;15.352;2023-11-19T12:40:24;97685.03;;;3.34;99.96
77799;BME280;66989;50.426;15.352;2023-11-19T12:42:51;97685.56;;;3.41;100.00
77799;BME280;66989;50.426;15.352;2023-11-19T12:45:18;97688.66;;;3.47;100.00
77799;BME280;66989;50.426;15.352;2023-11-19T12:47:45;97689.97;;;3.54;100.00
77799;BME280;66989;50.426;15.352;2023-11-19T12:50:15;97685.91;;;3.65;100.00
77799;BME280;66989;50.426;15.352;2023-11-19T12:52:42;97674.22;;;3.72;100.00
77799;BME280;66989;50.426;15.352;2023-11-19T12:55:27;97673.19;;;3.74;99.28
77799;BME280;66989;50.426;15.352;2023-11-19T12:57:52;97678.19;;;3.63;98.73
77799;BME280;66989;50.426;15.352;2023-11-19T13:00:21;97681.16;;;3.57;99.09
77799;BME280;66989;50.426;15.352;2023-11-19T13:02:48;97681.50;;;3.51;99.25
77799;BME280;66989;50.426;15.352;2023-11-19T13:07:49;97672.91;;;3.49;99.83
77799;BME280;66989;50.426;15.352;2023-11-19T13:10:15;97667.69;;;3.49;99.62
77799;BME280;66989;50.426;15.352;2023-11-19T13:12:41;97662.69;;;3.46;99.32
77799;BME280;66989;50.426;15.352;2023-11-19T13:15:06;97654.88;;;3.46;99.48
77799;BME280;66989;50.426;15.352;2023-11-19T13:17:32;97642.66;;;3.46;99.85